Terminal Aerodrome Forecast
Issued by NWS

Home | Current Version | Previous Version | Text Only | Print | Product List | Glossary On
Versions: 1 2 3 4 5 6 7 8 9 10 11 12
737
FTUS45 KFGZ 041734
TAFPGA
TAF
KPGA 041734Z 0418/0518 VRB05KT P6SM FEW250
     FM042000 14010G15KT P6SM SCT250
     FM050300 VRB05KT P6SM SCT250=

USA.gov is the U.S. government's official web portal to all federal, state and local government web resources and services.